Latest Weather Observations for Maroochydore

IDQ60901

Issued at 8:41 am EST Friday 21 July 2017 (issued every 10 minutes, with the page automatically refreshed every 10 minutes)

About weather observations | Map of Brisbane area stations | Latest observations for Brisbane area | Other Formats
Station Details ID: 040861 Name: SUNSHINE COAST AIRPORT Lat: -26.60 Lon: 153.09 Height: 3.3 m
Data from the previous 72 hours. | See also: Recent months at Maroochydore
Date/Time
EST
Temp
°C
App
Temp
°C
Dew
Point
°C
Rel
Hum
%
Delta-T
°C
Wind Press
QNH
hPa
Press
MSL
hPa
Rain since
9am
mm
Dir  Spd
km/h
Gust
km/h
Spd
kts
Gust
kts
21/08:30am 14.0 10.7 2.3 45 5.1 W 9 11 5 6 1018.5 - 0.0
21/08:00am 11.4 8.6 2.9 56 3.7 WNW 7 9 4 5 1018.2 - 0.0
21/07:30am 8.2 5.0 3.3 71 2.1 WNW 9 11 5 6 1017.8 - 0.0
21/07:00am 4.6 2.1 1.3 79 1.3 NW 4 7 2 4 1017.5 - 0.0
21/06:30am 3.9 0.9 0.8 80 1.2 W 6 9 3 5 1017.2 - 0.0
21/06:00am 6.0 3.3 0.3 67 2.2 NNW 4 7 2 4 1016.9 1016.9 0.0
21/05:30am 7.9 3.5 0.2 58 3.0 WSW 13 17 7 9 1016.5 - 0.0
21/05:00am 8.2 4.8 -0.3 55 3.3 NW 7 9 4 5 1016.3 - 0.0
21/04:30am 9.7 5.7 0.3 52 3.8 WSW 11 15 6 8 1015.8 - 0.0
21/04:00am 8.5 4.1 0.5 57 3.2 WSW 13 15 7 8 1015.7 - 0.0
21/03:30am 9.8 6.6 0.9 54 3.6 WSW 7 11 4 6 1015.7 - 0.0
21/03:00am 11.0 6.3 1.0 50 4.1 W 15 20 8 11 1015.6 1015.6 0.0
21/02:30am 11.5 6.9 1.5 50 4.2 W 15 19 8 10 1015.8 - 0.0
21/02:00am 10.7 6.5 1.8 54 3.8 W 13 19 7 10 1015.6 - 0.0
21/01:30am 9.8 5.6 1.9 58 3.3 W 13 17 7 9 1015.7 - 0.0
21/01:00am 9.5 6.1 2.1 60 3.1 W 9 11 5 6 1015.8 - 0.0
21/12:30am 10.5 6.8 2.4 57 3.5 W 11 13 6 7 1015.9 - 0.0
21/12:00am 11.6 8.8 3.1 56 3.7 W 7 11 4 6 1016.0 1016.0 0.0
 
Date/Time
EST
Temp
°C
App
Temp
°C
Dew
Point
°C
Rel
Hum
%
Delta-T
°C
Wind Press
QNH
hPa
Press
MSL
hPa
Rain since
9am
mm
Dir  Spd
km/h
Gust
km/h
Spd
kts
Gust
kts
20/11:30pm 11.1 7.8 2.7 56 3.6 WSW 9 11 5 6 1016.0 - 0.0
20/11:00pm 11.8 7.6 3.8 58 3.6 WSW 15 20 8 11 1016.0 - 0.0
20/10:30pm 8.3 4.5 3.9 74 1.9 SW 13 19 7 10 1016.2 - 0.0
20/10:00pm 6.5 4.2 2.9 78 1.5 W 4 7 2 4 1016.5 - 0.0
20/09:30pm 7.6 6.2 3.3 74 1.8 CALM 0 6 0 3 1016.6 - 0.0
20/09:00pm 8.9 6.7 3.5 69 2.3 W 4 9 2 5 1016.3 1016.3 0.0
20/08:30pm 10.3 7.0 4.7 68 2.5 WNW 11 13 6 7 1016.2 - 0.0
20/08:00pm 8.6 6.4 3.6 71 2.2 NW 4 11 2 6 1016.2 - 0.0
20/07:30pm 10.6 8.2 4.3 65 2.8 N 6 7 3 4 1015.8 - 0.0
20/07:00pm 11.7 8.3 4.2 60 3.4 W 11 13 6 7 1015.4 - 0.0
20/06:30pm 12.9 11.5 3.3 52 4.3 CALM 0 0 0 0 1015.5 - 0.0
20/06:00pm 14.9 13.0 2.8 44 5.4 W 2 6 1 3 1015.2 1015.2 0.0
20/05:30pm 16.3 12.4 1.2 36 6.6 SW 11 13 6 7 1015.0 - 0.0
20/05:00pm 18.3 13.7 1.3 32 7.6 SW 15 24 8 13 1014.8 - 0.0
20/04:30pm 19.9 14.9 1.4 29 8.4 SW 17 24 9 13 1014.3 - 0.0
20/04:00pm 21.2 16.5 1.0 26 9.2 WSW 15 20 8 11 1014.2 - 0.0
20/03:30pm 21.5 16.8 0.7 25 9.4 SW 15 22 8 12 1014.1 - 0.0
20/03:00pm 21.7 16.0 0.3 24 9.6 SW 20 32 11 17 1014.1 1014.1 0.0
20/02:30pm 22.1 17.9 1.7 26 9.5 SW 13 19 7 10 1014.3 - 0.0
20/02:00pm 21.5 15.9 0.1 24 9.6 WSW 19 26 10 14 1014.5 - 0.0
20/01:30pm 21.2 16.1 1.0 26 9.2 SW 17 24 9 13 1014.6 - 0.0
20/01:00pm 20.8 15.5 1.6 28 8.8 WSW 19 28 10 15 1014.9 - 0.0
20/12:30pm 20.2 16.0 1.6 29 8.5 SW 13 20 7 11 1015.4 - 0.0
20/12:00pm 19.5 14.6 1.9 31 8.0 WSW 17 22 9 12 1016.2 1016.2 0.0
20/11:30am 19.1 15.6 3.7 36 7.3 W 11 19 6 10 1016.5 - 0.0
20/11:00am 18.7 14.7 2.9 35 7.3 W 13 19 7 10 1017.2 - 0.0
20/10:30am 17.9 12.5 2.6 36 7.0 WNW 20 26 11 14 1017.7 - 0.0
20/10:00am 17.8 14.0 3.7 39 6.6 WSW 13 22 7 12 1017.8 - 0.0
20/09:30am 17.0 12.3 3.3 40 6.3 WSW 17 24 9 13 1017.7 - 0.0
20/09:00am 16.5 12.0 4.2 44 5.7 WSW 17 24 9 13 1017.6 1017.6 0.0
20/08:30am 15.5 11.0 4.2 47 5.2 WSW 17 22 9 12 1017.1 - 0.0
20/08:00am 14.5 9.9 3.9 49 4.8 SW 17 22 9 12 1017.1 - 0.0
20/07:30am 13.2 10.6 4.1 54 4.1 WNW 7 13 4 7 1016.7 - 0.0
20/07:00am 11.9 8.3 3.2 55 3.8 W 11 17 6 9 1016.5 - 0.0
20/06:30am 12.4 7.4 3.6 55 3.9 SSW 19 30 10 16 1016.3 - 0.0
20/06:00am 12.1 7.0 3.1 54 4.0 SW 19 28 10 15 1016.0 1016.0 0.0
20/05:30am 11.7 6.3 2.5 53 4.0 SW 20 26 11 14 1015.8 - 0.0
20/05:00am 11.4 7.8 2.7 55 3.8 W 11 15 6 8 1015.4 - 0.0
20/04:30am 11.4 7.3 2.4 54 3.9 W 13 20 7 11 1014.8 - 0.0
20/04:00am 11.2 7.9 2.5 55 3.7 WSW 9 17 5 9 1014.3 - 0.0
20/03:30am 11.2 6.4 2.5 55 3.7 W 17 22 9 12 1013.9 - 0.0
20/03:00am 11.0 6.9 2.3 55 3.7 W 13 17 7 9 1013.7 1013.7 0.0
20/02:30am 11.5 8.2 2.3 53 4.0 W 9 11 5 6 1013.7 - 0.0
20/02:00am 12.4 8.7 2.3 50 4.4 WSW 11 15 6 8 1013.6 - 0.0
20/01:30am 12.9 9.2 2.2 48 4.6 WSW 11 22 6 12 1014.0 - 0.0
20/01:00am 12.9 8.8 2.2 48 4.6 WSW 13 20 7 11 1014.0 - 0.0
20/12:30am 13.2 9.8 1.8 46 4.9 WSW 9 15 5 8 1014.2 - 0.0
20/12:00am 14.1 10.6 1.4 42 5.5 S 9 20 5 11 1014.2 1014.2 0.0
 
Date/Time
EST
Temp
°C
App
Temp
°C
Dew
Point
°C
Rel
Hum
%
Delta-T
°C
Wind Press
QNH
hPa
Press
MSL
hPa
Rain since
9am
mm
Dir  Spd
km/h
Gust
km/h
Spd
kts
Gust
kts
19/11:30pm 14.7 8.8 1.6 41 5.7 SW 22 37 12 20 1014.0 - 0.0
19/11:00pm 14.7 8.4 1.6 41 5.7 WSW 24 35 13 19 1014.4 - 0.0
19/10:30pm 15.2 7.8 1.7 40 5.9 WSW 30 48 16 26 1014.4 - 0.0
19/10:00pm 15.7 7.9 1.8 39 6.1 WSW 32 52 17 28 1014.0 - 0.0
19/09:34pm 15.3 8.2 1.1 38 6.2 WSW 28 46 15 25 1014.3 - 0.0
19/09:30pm 15.5 7.6 0.9 37 6.3 WSW 32 46 17 25 1014.2 - 0.0
19/09:00pm 15.7 9.3 1.1 37 6.3 WSW 24 50 13 27 1014.5 1014.5 0.0
19/08:30pm 14.2 9.9 1.2 41 5.6 SW 13 17 7 9 1014.5 - 0.0
19/08:00pm 15.3 9.8 0.7 37 6.3 WSW 19 24 10 13 1014.2 - 0.0
19/07:30pm 16.0 10.2 -0.2 33 6.9 WSW 20 28 11 15 1013.7 - 0.0
19/07:00pm 15.9 8.9 -0.3 33 6.8 WSW 26 35 14 19 1012.8 - 0.0
19/06:30pm 15.9 9.7 -0.3 33 6.8 WSW 22 35 12 19 1012.8 - 0.0
19/06:00pm 16.0 9.8 -0.2 33 6.9 WSW 22 32 12 17 1012.4 1012.4 0.0
19/05:30pm 16.3 10.6 -0.8 31 7.2 WSW 19 26 10 14 1012.1 - 0.0
19/05:00pm 17.2 10.9 -1.0 29 7.7 WSW 22 35 12 19 1011.6 - 0.0
19/04:30pm 18.2 10.0 -1.1 27 8.2 WSW 32 43 17 23 1011.0 - 0.0
19/04:00pm 18.9 11.5 -1.0 26 8.5 WSW 28 39 15 21 1010.6 - 0.0
19/03:55pm 19.1 11.8 -0.3 27 8.4 WSW 28 46 15 25 1010.5 - 0.0
19/03:30pm 19.5 12.5 -0.5 26 8.7 W 26 39 14 21 1010.1 - 0.0
19/03:17pm 19.7 12.2 -1.4 24 9.0 WSW 28 48 15 26 1009.9 - 0.0
19/03:00pm 19.7 11.2 -2.0 23 9.2 W 33 50 18 27 1009.7 1009.7 0.0
19/02:37pm 19.8 11.5 -1.9 23 9.2 W 32 50 17 27 1009.7 - 0.0
19/02:30pm 20.1 11.3 -1.1 24 9.2 W 35 50 19 27 1009.6 - 0.0
19/02:03pm 20.0 11.7 -1.7 23 9.3 W 32 52 17 28 1009.7 - 0.0
19/02:00pm 20.1 11.8 -1.7 23 9.3 W 32 43 17 23 1009.8 - 0.0
19/01:51pm 19.7 10.1 -1.4 24 9.0 W 39 46 21 25 1009.9 - 0.0
19/01:30pm 20.5 12.6 -1.9 22 9.6 WSW 30 41 16 22 1010.0 - 0.0
19/01:19pm 20.0 11.7 -1.7 23 9.3 W 32 50 17 27 1010.1 - 0.0
19/01:00pm 20.6 13.9 -1.2 23 9.4 WSW 24 37 13 20 1010.4 - 0.0
19/12:30pm 20.4 13.6 -2.0 22 9.5 W 24 32 13 17 1010.8 - 0.0
19/12:00pm 20.0 12.7 -0.1 26 8.9 WSW 28 39 15 21 1011.7 1011.7 0.0
19/11:30am 19.5 12.3 1.0 29 8.3 WSW 28 41 15 22 1012.3 - 0.0
19/11:00am 19.6 13.4 2.0 31 8.1 WSW 24 39 13 21 1012.8 - 0.0
19/10:30am 19.1 11.5 0.7 29 8.2 WSW 30 43 16 23 1013.1 - 0.0
19/10:00am 19.4 12.0 1.9 31 8.0 WSW 30 43 16 23 1013.3 - 0.0
19/09:30am 19.5 12.6 2.4 32 7.9 WSW 28 39 15 21 1013.4 - 0.0
19/09:00am 19.2 12.7 2.6 33 7.7 W 26 41 14 22 1013.4 1013.4 0.4
19/08:30am 18.7 14.0 6.2 44 6.2 W 20 30 11 16 1013.3 - 0.2
19/08:00am 17.8 14.1 8.1 53 5.0 WNW 17 22 9 12 1013.2 - 0.2
19/07:30am 16.9 13.0 8.6 58 4.3 WNW 19 24 10 13 1012.9 - 0.2
19/07:00am 16.2 12.7 10.1 67 3.2 W 19 24 10 13 1012.7 - 0.2
19/06:30am 15.9 12.6 10.9 72 2.7 W 19 26 10 14 1012.5 - 0.2
19/06:00am 15.3 13.1 12.1 81 1.7 W 15 20 8 11 1012.2 1012.2 0.2
19/05:30am 15.5 13.1 12.8 84 1.5 WNW 17 20 9 11 1012.0 - 0.2
19/05:00am 15.7 14.0 13.5 87 1.2 WNW 15 19 8 10 1011.8 - 0.2
19/04:30am 16.0 14.6 14.4 90 0.9 W 15 20 8 11 1011.8 - 0.2
19/04:00am 15.8 15.1 14.3 91 0.9 WNW 11 15 6 8 1011.6 - 0.2
19/03:30am 16.6 15.2 15.5 93 0.6 NW 17 24 9 13 1011.3 - 0.2
19/03:00am 17.0 16.0 15.7 92 0.8 NNW 15 22 8 12 1011.8 1011.8 0.2
19/02:30am 17.4 17.3 15.9 91 0.9 NW 11 15 6 8 1012.8 - 0.2
19/02:00am 17.4 17.2 15.7 90 1.0 NW 11 15 6 8 1013.2 - 0.0
19/01:30am 17.7 17.0 16.4 92 0.8 WNW 15 22 8 12 1013.2 - 0.0
19/01:00am 16.2 16.7 15.1 93 0.6 WNW 6 9 3 5 1013.6 - 0.0
19/12:30am 16.2 16.1 14.9 92 0.7 NW 9 13 5 7 1013.5 - 0.0
19/12:00am 16.3 15.8 15.0 92 0.7 WNW 11 15 6 8 1013.8 1013.8 0.0
 
Date/Time
EST
Temp
°C
App
Temp
°C
Dew
Point
°C
Rel
Hum
%
Delta-T
°C
Wind Press
QNH
hPa
Press
MSL
hPa
Rain since
9am
mm
Dir  Spd
km/h
Gust
km/h
Spd
kts
Gust
kts
18/11:30pm 16.4 15.5 14.8 90 0.9 NW 13 19 7 10 1013.7 - 0.0
18/11:00pm 16.5 15.7 15.2 92 0.8 NNW 13 20 7 11 1014.0 - 0.0
18/10:30pm 15.4 16.1 13.4 88 1.1 NW 2 7 1 4 1014.6 - 0.0
18/10:00pm 16.5 16.7 14.2 86 1.3 NNW 6 9 3 5 1014.8 - 0.0
18/09:30pm 17.4 16.4 14.7 84 1.6 NNW 13 20 7 11 1015.3 - 0.0
18/09:00pm 17.9 16.5 15.5 86 1.4 NNW 17 22 9 12 1015.5 1015.5 0.0
18/08:30pm 17.8 17.2 15.6 87 1.3 NW 13 19 7 10 1015.6 - 0.0
18/08:00pm 18.6 17.7 15.8 84 1.7 NNW 15 22 8 12 1015.7 - 0.0
18/07:30pm 19.1 18.9 16.7 86 1.4 NNW 13 19 7 10 1015.8 - 0.0
18/07:00pm 19.0 18.7 16.4 85 1.6 N 13 19 7 10 1015.9 - 0.0
18/06:30pm 19.1 18.7 16.3 84 1.7 N 13 19 7 10 1015.8 - 0.0
18/06:00pm 19.6 18.9 16.3 81 2.0 N 15 20 8 11 1015.6 1015.6 0.0
18/05:30pm 20.2 19.0 17.0 82 1.9 N 19 28 10 15 1015.3 - 0.0
18/05:00pm 20.4 19.1 16.8 80 2.2 N 19 24 10 13 1015.2 - 0.0
18/04:30pm 21.4 20.0 16.6 74 2.9 N 19 24 10 13 1015.0 - 0.0
18/04:00pm 22.4 21.1 16.9 71 3.4 N 19 24 10 13 1015.0 - 0.0
18/03:30pm 22.6 20.4 16.9 70 3.5 NNE 24 32 13 17 1015.0 - 0.0
18/03:00pm 23.0 20.8 16.8 68 3.8 N 24 35 13 19 1015.2 1015.2 0.0
18/02:30pm 23.9 21.6 16.7 64 4.4 N 24 32 13 17 1015.2 - 0.0
18/02:00pm 24.0 21.8 16.8 64 4.4 NNE 24 33 13 18 1015.4 - 0.0
18/01:30pm 24.1 21.6 16.1 61 4.9 NNE 24 33 13 18 1015.8 - 0.0
18/01:00pm 25.3 23.8 16.7 59 5.3 NNE 20 28 11 15 1016.2 - 0.0
18/12:30pm 25.4 23.8 13.9 49 6.8 NNW 15 26 8 14 1017.0 - 0.0
18/12:00pm 25.1 23.4 14.6 52 6.2 NW 17 26 9 14 1017.6 1017.6 0.0
18/11:30am 24.2 21.8 13.7 52 6.1 NW 19 28 10 15 1018.4 - 0.0
18/11:00am 24.0 22.2 14.4 55 5.7 NNW 17 24 9 13 1019.1 - 0.0
18/10:30am 22.7 21.1 15.0 61 4.6 NW 17 24 9 13 1019.8 - 0.0
18/10:00am 22.4 20.9 16.4 69 3.6 NW 19 26 10 14 1020.1 - 0.0
18/09:30am 21.2 20.0 16.2 73 3.0 NW 17 24 9 13 1020.3 - 0.0
18/09:00am 20.1 19.6 16.9 82 1.9 NW 15 20 8 11 1020.6 1020.6 0.2

Latest Capital City Observations: Canberra | Sydney | Melbourne | Brisbane | Adelaide | Perth | Hobart | Darwin

Other Formats:

Comma delimited format used in spreadsheet applications
http://www.bom.gov.au/fwo/IDQ60901/IDQ60901.94569.axf

JavaScript Object Notation format (JSON) in row-major order
http://www.bom.gov.au/fwo/IDQ60901/IDQ60901.94569.json